Bolingbroke, Georgia
Current Conditions -  °F | °C
As of 7:53 AM on Thursday 30 Oct 2014 (Local Time) from KMCN Reporting Station
Clear Clear  
Wind Chill: 45°   Ceiling: Unl
Heat Index: 47°   Visibility: 10mi
Dew Point: 44°   Wind: 5mph
Humidity: 90%   Direction: 330°NNW
Pressure: 30.04"   Gusts: NA
Location:  32.95°N, 83.8°W
Report Text: KMCN 301153Z 33004KT 10SM CLR 08/07 A3004 RMK AO2 SLP170 T00830067 10139 20078 53007
Loading
Personal Weather Stations






























Interactive Weather Map
Tropical Storm Tracking
New forecast layout! Learn more

10-Day Weather Forecast

Advertisements
Track Severe Weather on mobile